Time;durP1;ratioP1;P1;durP2;ratioP2;P2;SDS_P1;SDS_P2;PMS_P1;PMS_P2;Temp;Humidity;BMP_temperature;BMP_pressure;BME280_temperature;BME280_humidity;BME280_pressure;Samples;Min_cycle;Max_cycle;Signal;HPM_P1;HPM_P2
2023/03/09 00:01:29;;;;;;;26.27;14.30;;;;;;;;;;4989191;28;20572;-77
2023/03/09 00:03:54;;;;;;;28.63;14.43;;;;;;;;;;4985540;28;20199;-78
2023/03/09 00:06:19;;;;;;;26.63;13.37;;;;;;;;;;4986733;28;20563;-78
2023/03/09 00:08:45;;;;;;;25.37;13.40;;;;;;;;;;4992673;28;20172;-77
2023/03/09 00:11:10;;;;;;;28.90;13.83;;;;;;;;;;4986814;28;20198;-77
2023/03/09 00:13:35;;;;;;;25.03;14.33;;;;;;;;;;4998079;28;20741;-77
2023/03/09 00:16:08;;;;;;;31.53;14.80;;;;;;;;;;4994675;28;20187;-78
2023/03/09 00:18:33;;;;;;;24.40;13.33;;;;;;;;;;4993905;28;20176;-77
2023/03/09 00:20:58;;;;;;;28.03;13.93;;;;;;;;;;4994744;28;20249;-77
2023/03/09 00:23:24;;;;;;;26.37;13.90;;;;;;;;;;4994334;28;20637;-77
2023/03/09 00:25:49;;;;;;;26.80;13.90;;;;;;;;;;4992696;28;20172;-78
2023/03/09 00:28:14;;;;;;;28.27;14.60;;;;;;;;;;4994052;28;20183;-78
2023/03/09 00:30:39;;;;;;;28.53;15.50;;;;;;;;;;4992004;28;20664;-78
2023/03/09 00:33:04;;;;;;;26.20;14.17;;;;;;;;;;4981768;28;20202;-77
2023/03/09 00:35:30;;;;;;;29.13;14.47;;;;;;;;;;4991990;28;20203;-77
2023/03/09 00:37:55;;;;;;;26.17;14.13;;;;;;;;;;4989837;28;20215;-77
2023/03/09 00:40:20;;;;;;;29.33;16.33;;;;;;;;;;5008925;28;20199;-78
2023/03/09 00:42:45;;;;;;;27.00;14.57;;;;;;;;;;4989396;28;20172;-77
2023/03/09 00:45:11;;;;;;;27.40;14.57;;;;;;;;;;4988342;28;20604;-77
2023/03/09 00:47:36;;;;;;;26.10;13.70;;;;;;;;;;4995116;28;20198;-78
2023/03/09 00:50:01;;;;;;;27.17;14.07;;;;;;;;;;4986995;28;20188;-77
2023/03/09 00:52:27;;;;;;;30.03;15.33;;;;;;;;;;4992781;28;20202;-77
2023/03/09 00:54:53;;;;;;;26.70;14.73;;;;;;;;;;4993000;28;20180;-77
2023/03/09 00:57:21;;;;;;;29.50;15.10;;;;;;;;;;4982582;28;20200;-77
2023/03/09 00:59:47;;;;;;;25.47;14.77;;;;;;;;;;4993061;28;20294;-77
2023/03/09 01:02:12;;;;;;;26.77;14.70;;;;;;;;;;4985968;28;20692;-77
2023/03/09 01:04:37;;;;;;;29.03;14.83;;;;;;;;;;4993047;28;20237;-77
2023/03/09 01:07:03;;;;;;;32.17;14.83;;;;;;;;;;4989618;28;20251;-78
2023/03/09 01:09:28;;;;;;;26.50;13.17;;;;;;;;;;4988939;28;20665;-78
2023/03/09 01:11:54;;;;;;;26.57;14.00;;;;;;;;;;4991760;28;20651;-77
2023/03/09 01:14:20;;;;;;;29.83;14.83;;;;;;;;;;4993365;28;20241;-78
2023/03/09 01:16:45;;;;;;;28.07;14.53;;;;;;;;;;4991793;28;20199;-77
2023/03/09 01:19:10;;;;;;;27.70;14.13;;;;;;;;;;4989392;28;20521;-78
2023/03/09 01:21:35;;;;;;;25.03;13.97;;;;;;;;;;4996481;28;20681;-79
2023/03/09 01:24:00;;;;;;;24.13;12.97;;;;;;;;;;4990029;28;20657;-77
2023/03/09 01:26:25;;;;;;;28.47;15.23;;;;;;;;;;4994248;28;20203;-77
2023/03/09 01:28:51;;;;;;;22.73;12.87;;;;;;;;;;5016850;28;20202;-78
2023/03/09 01:31:16;;;;;;;22.03;12.10;;;;;;;;;;5000575;28;20206;-77
2023/03/09 01:33:42;;;;;;;23.40;13.27;;;;;;;;;;4994039;28;20206;-78
2023/03/09 01:36:10;;;;;;;29.33;14.37;;;;;;;;;;4998914;28;20226;-77
2023/03/09 01:38:36;;;;;;;21.13;12.33;;;;;;;;;;4990853;28;20194;-77
2023/03/09 01:41:01;;;;;;;23.50;12.43;;;;;;;;;;4999058;28;20200;-77
2023/03/09 01:43:40;;;;;;;26.03;14.27;;;;;;;;;;5001735;28;20211;-77
2023/03/09 01:46:24;;;;;;;23.70;12.07;;;;;;;;;;4994098;28;20230;-78
2023/03/09 01:48:52;;;;;;;19.30;11.53;;;;;;;;;;4995821;28;20172;-78
2023/03/09 01:51:18;;;;;;;24.87;12.57;;;;;;;;;;4999884;28;20183;-78
2023/03/09 01:53:43;;;;;;;28.23;13.43;;;;;;;;;;4999491;28;20190;-77
2023/03/09 01:56:09;;;;;;;20.40;12.27;;;;;;;;;;4996330;28;20627;-77
2023/03/09 01:58:34;;;;;;;27.00;14.20;;;;;;;;;;4992468;28;20184;-77
2023/03/09 02:01:00;;;;;;;24.43;12.73;;;;;;;;;;4991933;28;20647;-78
2023/03/09 02:03:26;;;;;;;21.37;11.83;;;;;;;;;;4991727;28;20186;-78
2023/03/09 02:05:52;;;;;;;25.83;13.40;;;;;;;;;;4987721;28;20474;-77
2023/03/09 02:08:18;;;;;;;19.50;11.60;;;;;;;;;;4985970;28;20203;-77
2023/03/09 02:11:03;;;;;;;25.33;12.93;;;;;;;;;;4990741;28;20179;-77
2023/03/09 02:13:30;;;;;;;21.47;11.63;;;;;;;;;;4991475;28;20282;-78
2023/03/09 02:15:55;;;;;;;22.20;12.63;;;;;;;;;;4992154;28;20266;-78
2023/03/09 02:18:20;;;;;;;22.93;12.07;;;;;;;;;;4993013;28;20634;-78
2023/03/09 02:20:52;;;;;;;21.63;12.60;;;;;;;;;;4986356;28;20645;-78
2023/03/09 02:23:32;;;;;;;19.07;11.63;;;;;;;;;;4990426;28;20263;-78
2023/03/09 02:26:07;;;;;;;22.23;11.67;;;;;;;;;;4990677;28;20294;-77
2023/03/09 02:28:33;;;;;;;20.23;11.60;;;;;;;;;;4993290;28;20175;-78
2023/03/09 02:30:58;;;;;;;22.07;11.63;;;;;;;;;;4995490;28;20179;-77
2023/03/09 02:33:25;;;;;;;18.07;11.47;;;;;;;;;;4991270;28;20187;-80
2023/03/09 02:35:52;;;;;;;20.60;11.27;;;;;;;;;;4991899;28;20180;-78
2023/03/09 02:38:17;;;;;;;22.80;11.47;;;;;;;;;;4994310;28;20198;-78
2023/03/09 02:40:43;;;;;;;19.97;11.83;;;;;;;;;;4994555;28;20187;-76
2023/03/09 02:43:09;;;;;;;20.17;11.37;;;;;;;;;;4992466;28;20172;-78
2023/03/09 02:45:34;;;;;;;22.03;11.67;;;;;;;;;;4992992;28;20251;-78
2023/03/09 02:48:00;;;;;;;18.33;10.40;;;;;;;;;;4996651;28;20195;-77
2023/03/09 02:50:25;;;;;;;18.83;10.53;;;;;;;;;;4996378;28;20176;-77
2023/03/09 02:52:50;;;;;;;17.03;10.07;;;;;;;;;;4995462;28;20724;-77
2023/03/09 02:55:16;;;;;;;18.97;10.37;;;;;;;;;;4995059;28;20319;-77
2023/03/09 02:57:41;;;;;;;20.97;12.27;;;;;;;;;;4996359;28;20188;-77
2023/03/09 03:00:08;;;;;;;19.20;10.63;;;;;;;;;;4996466;28;20235;-77
2023/03/09 03:02:34;;;;;;;21.93;11.30;;;;;;;;;;4995034;28;20183;-77
2023/03/09 03:04:59;;;;;;;19.00;10.97;;;;;;;;;;4994516;28;20180;-78
2023/03/09 03:07:25;;;;;;;21.00;12.80;;;;;;;;;;4996129;28;20199;-77
2023/03/09 03:09:50;;;;;;;19.83;11.47;;;;;;;;;;4998525;28;20531;-78
2023/03/09 03:12:15;;;;;;;19.00;11.63;;;;;;;;;;4995556;28;20226;-78
2023/03/09 03:14:41;;;;;;;24.00;13.67;;;;;;;;;;4995123;28;20168;-77
2023/03/09 03:17:06;;;;;;;20.63;11.57;;;;;;;;;;4995664;28;20198;-78
2023/03/09 03:19:32;;;;;;;22.13;12.50;;;;;;;;;;4995371;28;20195;-79
2023/03/09 03:21:57;;;;;;;24.23;11.70;;;;;;;;;;4990632;28;20242;-77
2023/03/09 03:24:22;;;;;;;22.57;11.93;;;;;;;;;;4995511;28;20211;-78
2023/03/09 03:26:48;;;;;;;20.70;10.87;;;;;;;;;;4996100;28;20218;-78
2023/03/09 03:29:13;;;;;;;19.97;11.57;;;;;;;;;;5011078;28;20176;-78
2023/03/09 03:31:38;;;;;;;22.07;12.07;;;;;;;;;;4995945;28;20171;-77
2023/03/09 03:34:03;;;;;;;21.77;11.97;;;;;;;;;;4994955;28;20220;-77
2023/03/09 03:36:28;;;;;;;25.53;12.20;;;;;;;;;;4994968;28;20215;-78
2023/03/09 03:38:54;;;;;;;22.87;13.53;;;;;;;;;;4996967;28;20175;-78
2023/03/09 03:41:19;;;;;;;21.93;12.23;;;;;;;;;;4997471;28;20211;-77
2023/03/09 03:43:44;;;;;;;20.27;11.33;;;;;;;;;;4995497;28;20171;-77
2023/03/09 03:46:09;;;;;;;21.47;12.00;;;;;;;;;;4995504;28;20214;-78
2023/03/09 03:48:34;;;;;;;23.13;13.07;;;;;;;;;;4994854;28;20707;-77
2023/03/09 03:51:00;;;;;;;27.27;14.10;;;;;;;;;;4993503;28;20180;-78
2023/03/09 03:53:25;;;;;;;23.13;12.33;;;;;;;;;;4992471;28;20180;-78
2023/03/09 03:55:50;;;;;;;23.40;12.67;;;;;;;;;;4994145;28;20176;-78
2023/03/09 03:58:15;;;;;;;20.13;12.83;;;;;;;;;;4993058;28;20176;-77
2023/03/09 04:00:41;;;;;;;23.13;12.33;;;;;;;;;;4988186;28;20207;-78
2023/03/09 04:03:06;;;;;;;21.67;12.23;;;;;;;;;;4995204;28;20679;-77
2023/03/09 04:05:31;;;;;;;23.07;12.97;;;;;;;;;;4993127;28;20199;-79
2023/03/09 04:07:57;;;;;;;22.90;11.23;;;;;;;;;;5009734;28;20219;-78
2023/03/09 04:10:23;;;;;;;22.90;12.90;;;;;;;;;;4993874;28;20560;-78
2023/03/09 04:12:48;;;;;;;22.63;13.00;;;;;;;;;;4992187;28;20180;-77
2023/03/09 04:15:14;;;;;;;20.80;11.67;;;;;;;;;;4985375;28;20613;-78
2023/03/09 04:17:39;;;;;;;24.30;12.73;;;;;;;;;;4990863;28;20793;-77
2023/03/09 04:20:04;;;;;;;21.93;12.37;;;;;;;;;;4991758;28;20212;-78
2023/03/09 04:22:30;;;;;;;25.17;13.20;;;;;;;;;;4988543;28;20188;-78
2023/03/09 04:24:55;;;;;;;23.00;12.00;;;;;;;;;;4991552;28;20191;-77
2023/03/09 04:27:21;;;;;;;23.60;13.13;;;;;;;;;;4990024;28;20179;-77
2023/03/09 04:29:46;;;;;;;19.13;11.80;;;;;;;;;;4991162;28;20646;-78
2023/03/09 04:32:11;;;;;;;23.23;12.40;;;;;;;;;;4991622;28;20171;-78
2023/03/09 04:34:36;;;;;;;23.33;12.73;;;;;;;;;;5005539;23;20307;-68
2023/03/09 04:37:02;;;;;;;19.53;11.53;;;;;;;;;;5012168;28;20175;-68
2023/03/09 04:39:27;;;;;;;21.10;12.07;;;;;;;;;;5014758;28;20175;-68
2023/03/09 04:41:52;;;;;;;20.30;12.10;;;;;;;;;;5011974;28;20587;-68
2023/03/09 04:44:17;;;;;;;23.10;12.57;;;;;;;;;;5011439;28;20207;-69
2023/03/09 04:46:42;;;;;;;21.53;11.13;;;;;;;;;;5001328;28;20171;-68
2023/03/09 04:49:08;;;;;;;25.20;12.93;;;;;;;;;;5003107;28;20549;-69
2023/03/09 04:51:33;;;;;;;18.83;10.93;;;;;;;;;;5003818;28;20633;-68
2023/03/09 04:53:58;;;;;;;20.37;11.73;;;;;;;;;;4986057;28;20254;-71
2023/03/09 04:56:23;;;;;;;19.57;12.40;;;;;;;;;;4996263;28;20255;-70
2023/03/09 04:58:49;;;;;;;22.47;12.33;;;;;;;;;;5004594;28;20254;-68
2023/03/09 05:01:14;;;;;;;24.20;11.87;;;;;;;;;;5006069;28;20203;-68
2023/03/09 05:03:39;;;;;;;22.80;11.80;;;;;;;;;;5010646;28;20404;-70
2023/03/09 05:06:04;;;;;;;23.83;12.33;;;;;;;;;;5005236;28;20218;-68
2023/03/09 05:08:30;;;;;;;18.77;11.43;;;;;;;;;;4999720;28;20505;-68
2023/03/09 05:10:55;;;;;;;23.53;12.43;;;;;;;;;;4997588;28;20274;-68
2023/03/09 05:13:20;;;;;;;19.30;11.13;;;;;;;;;;5002036;28;20640;-68
2023/03/09 05:15:45;;;;;;;24.43;12.07;;;;;;;;;;5001294;28;20200;-71
2023/03/09 05:18:11;;;;;;;21.93;12.73;;;;;;;;;;4999733;28;20219;-68
2023/03/09 05:20:37;;;;;;;23.33;12.80;;;;;;;;;;5000049;28;20219;-69
2023/03/09 05:23:02;;;;;;;23.60;12.07;;;;;;;;;;4993176;28;20222;-68
2023/03/09 05:25:27;;;;;;;20.00;11.60;;;;;;;;;;5006355;28;20195;-68
2023/03/09 05:27:53;;;;;;;24.10;12.13;;;;;;;;;;4999765;28;20664;-68
2023/03/09 05:30:19;;;;;;;21.70;12.57;;;;;;;;;;4997427;28;20847;-68
2023/03/09 05:32:44;;;;;;;25.23;12.87;;;;;;;;;;4996870;28;20187;-69
2023/03/09 05:35:09;;;;;;;23.80;13.27;;;;;;;;;;4998760;28;20239;-69
2023/03/09 05:37:34;;;;;;;22.73;12.77;;;;;;;;;;4995913;28;20171;-69
2023/03/09 05:40:00;;;;;;;25.90;12.60;;;;;;;;;;5002622;28;20535;-69
2023/03/09 05:42:25;;;;;;;24.87;13.53;;;;;;;;;;5006260;28;20179;-69
2023/03/09 05:44:50;;;;;;;24.27;12.90;;;;;;;;;;5003082;28;20203;-68
2023/03/09 05:47:15;;;;;;;28.23;12.53;;;;;;;;;;4999946;28;20266;-69
2023/03/09 05:49:41;;;;;;;25.50;13.63;;;;;;;;;;4995884;28;20265;-69
2023/03/09 05:52:06;;;;;;;25.83;13.07;;;;;;;;;;5002555;28;20172;-69
2023/03/09 05:54:31;;;;;;;25.17;13.73;;;;;;;;;;5002722;28;20233;-69
2023/03/09 05:56:56;;;;;;;21.63;12.23;;;;;;;;;;5005762;28;20171;-69
2023/03/09 05:59:22;;;;;;;23.03;12.50;;;;;;;;;;5002378;28;20261;-68
2023/03/09 06:01:47;;;;;;;23.63;12.83;;;;;;;;;;5002494;28;20199;-69
2023/03/09 06:04:12;;;;;;;26.03;12.57;;;;;;;;;;5005986;28;20163;-69
2023/03/09 06:06:37;;;;;;;23.00;11.97;;;;;;;;;;5011278;28;20179;-69
2023/03/09 06:09:03;;;;;;;23.53;12.57;;;;;;;;;;5011374;28;20628;-69
2023/03/09 06:11:28;;;;;;;22.73;12.53;;;;;;;;;;5011586;28;20269;-68
2023/03/09 06:13:54;;;;;;;23.03;11.97;;;;;;;;;;5011437;28;20202;-69
2023/03/09 06:16:19;;;;;;;21.57;13.47;;;;;;;;;;5009568;28;20209;-69
2023/03/09 06:18:44;;;;;;;25.77;13.40;;;;;;;;;;5005155;28;20202;-69
2023/03/09 06:21:10;;;;;;;27.03;14.03;;;;;;;;;;5005267;28;20202;-69
2023/03/09 06:23:35;;;;;;;23.73;13.07;;;;;;;;;;5006519;28;20175;-69
2023/03/09 06:26:05;;;;;;;24.17;12.70;;;;;;;;;;5014943;28;20210;-69
2023/03/09 06:28:30;;;;;;;26.90;13.37;;;;;;;;;;5008489;28;20633;-69
2023/03/09 06:30:55;;;;;;;26.00;13.57;;;;;;;;;;5015356;28;20244;-69
2023/03/09 06:33:20;;;;;;;27.47;13.67;;;;;;;;;;5014554;28;20179;-69
2023/03/09 06:35:45;;;;;;;20.70;12.13;;;;;;;;;;5013291;28;20218;-69
2023/03/09 06:38:11;;;;;;;27.13;15.43;;;;;;;;;;5014964;28;20258;-69
2023/03/09 06:40:36;;;;;;;23.63;12.73;;;;;;;;;;5002754;28;20216;-69
2023/03/09 06:43:01;;;;;;;23.03;13.03;;;;;;;;;;5011323;28;20174;-69
2023/03/09 06:45:27;;;;;;;25.23;13.83;;;;;;;;;;5002230;28;20253;-69
2023/03/09 06:47:54;;;;;;;25.17;13.57;;;;;;;;;;5001868;28;20179;-69
2023/03/09 06:50:19;;;;;;;24.30;12.77;;;;;;;;;;5013720;28;20637;-69
2023/03/09 06:52:44;;;;;;;21.47;12.17;;;;;;;;;;5003654;28;20179;-69
2023/03/09 06:55:10;;;;;;;23.87;13.37;;;;;;;;;;5008496;28;20199;-69
2023/03/09 06:57:36;;;;;;;22.93;12.23;;;;;;;;;;5012184;28;20186;-69
2023/03/09 07:00:01;;;;;;;26.33;15.40;;;;;;;;;;5013985;28;20182;-69
2023/03/09 07:02:26;;;;;;;25.27;14.40;;;;;;;;;;5000167;28;20522;-69
2023/03/09 07:04:51;;;;;;;26.07;13.13;;;;;;;;;;5009217;28;20278;-68
2023/03/09 07:07:18;;;;;;;24.43;14.23;;;;;;;;;;5007875;28;20175;-68
2023/03/09 07:09:43;;;;;;;29.27;15.37;;;;;;;;;;5013983;28;20182;-69
2023/03/09 07:12:08;;;;;;;29.77;16.47;;;;;;;;;;5013589;28;20171;-71
2023/03/09 07:14:34;;;;;;;33.93;18.40;;;;;;;;;;5023355;28;20641;-70
2023/03/09 07:16:59;;;;;;;34.30;17.57;;;;;;;;;;5014318;28;20185;-71
2023/03/09 07:19:25;;;;;;;29.23;15.80;;;;;;;;;;5013903;28;20175;-70
2023/03/09 07:21:52;;;;;;;28.80;15.43;;;;;;;;;;5013980;28;20660;-68
2023/03/09 07:24:17;;;;;;;26.03;14.33;;;;;;;;;;5012551;28;20171;-70
2023/03/09 07:26:42;;;;;;;31.33;16.70;;;;;;;;;;5014265;28;20159;-68
2023/03/09 07:29:08;;;;;;;28.67;15.63;;;;;;;;;;5009370;28;20186;-68
2023/03/09 07:31:33;;;;;;;26.00;15.03;;;;;;;;;;5009874;28;20183;-68
2023/03/09 07:33:58;;;;;;;27.07;13.80;;;;;;;;;;5007555;28;20181;-70
2023/03/09 07:36:23;;;;;;;21.90;12.40;;;;;;;;;;5015970;28;20652;-69
2023/03/09 07:38:50;;;;;;;23.80;13.53;;;;;;;;;;5012673;28;20298;-68
2023/03/09 07:41:15;;;;;;;24.63;13.50;;;;;;;;;;5013752;28;20202;-70
2023/03/09 07:43:46;;;;;;;23.97;13.67;;;;;;;;;;5013912;28;20194;-68
2023/03/09 07:46:15;;;;;;;22.87;13.20;;;;;;;;;;5014449;28;20199;-68
2023/03/09 07:48:42;;;;;;;22.23;13.07;;;;;;;;;;5013340;28;20592;-68
2023/03/09 07:51:07;;;;;;;24.43;12.70;;;;;;;;;;5013664;28;20206;-68
2023/03/09 07:53:33;;;;;;;23.57;13.73;;;;;;;;;;5012177;28;20210;-68
2023/03/09 07:56:03;;;;;;;23.90;13.30;;;;;;;;;;5013856;28;20195;-68
2023/03/09 07:58:28;;;;;;;23.40;13.50;;;;;;;;;;5012153;28;20178;-68
2023/03/09 08:00:53;;;;;;;21.33;12.30;;;;;;;;;;5008681;28;20203;-69
2023/03/09 08:03:19;;;;;;;25.70;13.17;;;;;;;;;;5001690;28;20269;-69
2023/03/09 08:05:44;;;;;;;25.03;13.60;;;;;;;;;;5011589;28;20200;-68
2023/03/09 08:08:11;;;;;;;24.67;13.90;;;;;;;;;;5013419;28;20167;-69
2023/03/09 08:10:36;;;;;;;23.80;13.57;;;;;;;;;;5005538;28;20175;-68
2023/03/09 08:13:01;;;;;;;22.37;12.60;;;;;;;;;;5014409;28;20177;-69
2023/03/09 08:15:27;;;;;;;20.73;12.50;;;;;;;;;;5009083;28;20550;-69
2023/03/09 08:17:52;;;;;;;25.37;13.63;;;;;;;;;;5013371;28;20194;-69
2023/03/09 08:20:18;;;;;;;22.13;13.57;;;;;;;;;;5012827;28;20226;-68
2023/03/09 08:22:43;;;;;;;25.73;13.50;;;;;;;;;;5019699;28;20182;-70
2023/03/09 08:25:08;;;;;;;18.53;11.60;;;;;;;;;;5019217;28;20190;-70
2023/03/09 08:27:37;;;;;;;19.00;11.73;;;;;;;;;;5015396;28;20175;-70
2023/03/09 08:30:03;;;;;;;18.73;11.57;;;;;;;;;;5005923;28;20221;-70
2023/03/09 08:32:29;;;;;;;19.53;12.40;;;;;;;;;;5009651;28;20179;-70
2023/03/09 08:34:55;;;;;;;22.27;12.70;;;;;;;;;;5003659;28;20696;-70
2023/03/09 08:37:20;;;;;;;21.63;12.03;;;;;;;;;;5000487;28;20191;-70
2023/03/09 08:39:45;;;;;;;20.63;12.23;;;;;;;;;;5001979;28;20171;-70
2023/03/09 08:42:11;;;;;;;19.87;12.23;;;;;;;;;;5007191;28;20700;-70
2023/03/09 08:44:36;;;;;;;21.07;12.47;;;;;;;;;;5008123;28;20257;-69
2023/03/09 08:47:02;;;;;;;19.03;12.03;;;;;;;;;;5010005;28;20539;-70
2023/03/09 08:49:27;;;;;;;19.97;11.80;;;;;;;;;;5001295;28;20262;-70
2023/03/09 08:51:52;;;;;;;22.40;13.57;;;;;;;;;;5010688;28;20273;-70
2023/03/09 08:54:18;;;;;;;20.70;12.50;;;;;;;;;;5005860;28;20218;-70
2023/03/09 08:56:43;;;;;;;18.77;11.67;;;;;;;;;;4991101;28;20184;-70
2023/03/09 08:59:09;;;;;;;21.07;13.00;;;;;;;;;;5007300;28;20187;-70
2023/03/09 09:01:34;;;;;;;23.20;13.40;;;;;;;;;;4994390;28;20207;-70
2023/03/09 09:03:59;;;;;;;20.77;12.67;;;;;;;;;;5000546;28;20179;-69
2023/03/09 09:06:24;;;;;;;21.47;13.33;;;;;;;;;;5007129;28;20189;-69
2023/03/09 09:08:50;;;;;;;19.60;12.57;;;;;;;;;;5022411;28;20178;-69
2023/03/09 09:11:16;;;;;;;20.73;12.53;;;;;;;;;;5008518;28;20206;-69
2023/03/09 09:13:41;;;;;;;21.17;12.80;;;;;;;;;;5009626;28;20175;-69
2023/03/09 09:16:07;;;;;;;22.27;13.27;;;;;;;;;;5004712;28;20709;-69
2023/03/09 09:18:33;;;;;;;18.70;11.63;;;;;;;;;;5006165;28;20175;-69
2023/03/09 09:20:58;;;;;;;21.03;13.10;;;;;;;;;;5010075;28;20668;-69
2023/03/09 09:23:24;;;;;;;23.40;13.17;;;;;;;;;;5011231;28;20203;-69
2023/03/09 09:25:54;;;;;;;20.67;13.27;;;;;;;;;;5009260;28;20198;-69
2023/03/09 09:28:19;;;;;;;21.53;12.60;;;;;;;;;;5011241;28;20175;-69
2023/03/09 09:30:44;;;;;;;21.87;12.27;;;;;;;;;;5012875;28;20186;-69
2023/03/09 09:33:11;;;;;;;21.03;13.73;;;;;;;;;;5007584;28;20273;-69
2023/03/09 09:35:36;;;;;;;21.43;12.83;;;;;;;;;;4998158;28;20215;-69
2023/03/09 09:38:02;;;;;;;22.77;12.77;;;;;;;;;;5005670;28;20181;-69
2023/03/09 09:40:27;;;;;;;21.07;13.07;;;;;;;;;;5011418;28;20682;-69
2023/03/09 09:42:53;;;;;;;21.93;13.37;;;;;;;;;;5004258;28;20179;-70
2023/03/09 09:45:27;;;;;;;18.97;11.80;;;;;;;;;;5008789;28;20630;-70
2023/03/09 09:47:53;;;;;;;20.53;12.00;;;;;;;;;;5011699;28;20183;-70
2023/03/09 09:50:29;;;;;;;23.37;13.40;;;;;;;;;;5011882;28;20179;-70
2023/03/09 09:53:11;;;;;;;22.47;12.93;;;;;;;;;;5010386;28;20222;-70
2023/03/09 09:55:37;;;;;;;22.53;12.87;;;;;;;;;;5010191;28;20206;-69
2023/03/09 09:58:08;;;;;;;20.67;13.10;;;;;;;;;;5005251;28;20210;-69
2023/03/09 10:00:41;;;;;;;21.60;12.93;;;;;;;;;;5002682;28;20202;-70
2023/03/09 10:03:19;;;;;;;21.70;13.10;;;;;;;;;;4998322;28;20254;-70
2023/03/09 10:05:48;;;;;;;21.83;12.97;;;;;;;;;;5001512;28;20199;-70
2023/03/09 10:08:32;;;;;;;21.50;12.60;;;;;;;;;;5007462;28;20179;-70
2023/03/09 10:11:02;;;;;;;19.83;13.23;;;;;;;;;;5010824;28;20266;-69
2023/03/09 10:13:32;;;;;;;20.47;12.90;;;;;;;;;;5014314;28;20603;-69
2023/03/09 10:16:01;;;;;;;20.97;12.90;;;;;;;;;;5011026;28;20207;-70
2023/03/09 10:18:30;;;;;;;20.97;13.27;;;;;;;;;;5015883;28;20174;-70
2023/03/09 10:20:55;;;;;;;20.67;13.67;;;;;;;;;;5006559;28;20211;-70
2023/03/09 10:23:20;;;;;;;22.00;12.97;;;;;;;;;;5010522;28;20305;-70
2023/03/09 10:25:46;;;;;;;22.27;11.97;;;;;;;;;;5008013;28;20199;-70
2023/03/09 10:28:17;;;;;;;21.23;12.60;;;;;;;;;;5013903;28;20636;-70
2023/03/09 10:30:53;;;;;;;24.47;13.47;;;;;;;;;;5004472;28;20206;-69
2023/03/09 10:33:30;;;;;;;20.73;12.90;;;;;;;;;;5012214;28;20178;-70
2023/03/09 10:36:03;;;;;;;21.53;12.57;;;;;;;;;;5005383;28;20264;-69
2023/03/09 10:38:29;;;;;;;19.47;12.33;;;;;;;;;;5007306;28;20189;-70
2023/03/09 10:40:55;;;;;;;22.13;11.60;;;;;;;;;;5007918;28;20328;-70
2023/03/09 10:43:30;;;;;;;20.00;12.10;;;;;;;;;;5006950;28;20175;-70
2023/03/09 10:46:04;;;;;;;20.73;11.80;;;;;;;;;;5009143;28;20194;-70
2023/03/09 10:48:29;;;;;;;21.17;12.80;;;;;;;;;;5010926;28;20183;-70
2023/03/09 10:51:01;;;;;;;20.50;12.57;;;;;;;;;;5008318;22;20456;-77
2023/03/09 10:53:26;;;;;;;21.30;12.97;;;;;;;;;;4985972;28;20192;-77
2023/03/09 10:55:53;;;;;;;22.03;12.63;;;;;;;;;;4995129;28;20175;-78
2023/03/09 10:58:21;;;;;;;21.10;12.63;;;;;;;;;;5015853;28;20167;-77
2023/03/09 11:00:50;;;;;;;20.83;12.70;;;;;;;;;;5013096;28;20307;-78
2023/03/09 11:03:23;;;;;;;24.50;13.80;;;;;;;;;;5006176;28;20183;-77
2023/03/09 11:05:48;;;;;;;22.10;12.43;;;;;;;;;;5003016;28;20175;-78
2023/03/09 11:08:29;;;;;;;20.30;12.27;;;;;;;;;;4974776;28;20169;-78
2023/03/09 11:11:01;;;;;;;20.27;12.50;;;;;;;;;;4990546;28;20506;-76
2023/03/09 11:13:27;;;;;;;23.07;13.03;;;;;;;;;;4995099;28;20658;-76
2023/03/09 11:16:25;;;;;;;20.50;14.00;;;;;;;;;;4996542;28;20275;-76
2023/03/09 11:19:04;;;;;;;20.47;12.33;;;;;;;;;;4984228;28;20232;-76
2023/03/09 11:21:29;;;;;;;19.77;12.43;;;;;;;;;;4982971;28;20215;-76
2023/03/09 11:23:54;;;;;;;22.43;12.93;;;;;;;;;;4980917;28;20183;-77
2023/03/09 11:26:36;;;;;;;21.60;12.53;;;;;;;;;;4995949;28;20176;-80
2023/03/09 11:29:01;;;;;;;21.43;12.70;;;;;;;;;;4996279;28;20168;-77
2023/03/09 11:31:37;;;;;;;23.17;13.93;;;;;;;;;;4996008;28;20683;-77
2023/03/09 11:34:06;;;;;;;22.73;12.73;;;;;;;;;;5011477;28;20190;-77
2023/03/09 11:36:43;;;;;;;22.50;12.43;;;;;;;;;;4995885;28;20183;-78
2023/03/09 11:39:41;;;;;;;23.13;13.33;;;;;;;;;;4996073;28;20221;-77
2023/03/09 11:42:10;;;;;;;24.30;14.40;;;;;;;;;;4972747;28;20257;-77
2023/03/09 11:44:36;;;;;;;22.90;12.57;;;;;;;;;;4996360;28;20198;-77
2023/03/09 11:47:04;;;;;;;22.77;13.10;;;;;;;;;;4994146;28;20184;-83
2023/03/09 11:49:30;;;;;;;23.50;13.13;;;;;;;;;;4997614;28;20173;-76
2023/03/09 11:51:57;;;;;;;23.67;13.60;;;;;;;;;;5005080;28;20219;-81
2023/03/09 11:54:26;;;;;;;25.73;13.77;;;;;;;;;;5007957;28;20179;-77
2023/03/09 11:56:52;;;;;;;23.33;13.73;;;;;;;;;;5003385;28;20195;-79
2023/03/09 11:59:19;;;;;;;21.40;13.20;;;;;;;;;;5006160;28;20183;-80
2023/03/09 12:01:47;;;;;;;22.43;13.87;;;;;;;;;;5005096;28;20257;-79
2023/03/09 12:04:14;;;;;;;20.23;12.87;;;;;;;;;;5007628;28;20168;-80
2023/03/09 12:06:46;;;;;;;21.20;13.13;;;;;;;;;;5001941;28;20184;-79
2023/03/09 12:09:19;;;;;;;23.30;13.53;;;;;;;;;;4998640;28;20201;-78
2023/03/09 12:11:49;;;;;;;23.90;14.37;;;;;;;;;;5023586;28;20225;-79
2023/03/09 12:14:19;;;;;;;23.83;13.27;;;;;;;;;;5013054;28;20203;-78
2023/03/09 12:16:45;;;;;;;21.37;12.47;;;;;;;;;;4998594;28;20212;-80
2023/03/09 12:19:14;;;;;;;22.73;13.03;;;;;;;;;;5004577;28;20262;-81
2023/03/09 12:22:02;;;;;;;27.03;13.70;;;;;;;;;;4996828;28;20294;-80
2023/03/09 12:24:33;;;;;;;24.50;13.93;;;;;;;;;;4985951;28;20195;-79
2023/03/09 12:27:01;;;;;;;21.70;12.17;;;;;;;;;;4997262;28;20176;-79
2023/03/09 12:29:30;;;;;;;24.13;14.23;;;;;;;;;;4996961;28;20175;-79
2023/03/09 12:32:14;;;;;;;22.03;13.53;;;;;;;;;;4997838;28;20210;-80
2023/03/09 12:34:40;;;;;;;24.13;13.37;;;;;;;;;;4987361;28;20190;-79
2023/03/09 12:37:24;;;;;;;24.57;13.90;;;;;;;;;;4994967;28;20191;-79
2023/03/09 12:39:57;;;;;;;21.50;11.77;;;;;;;;;;4992456;28;20171;-79
2023/03/09 12:42:27;;;;;;;22.13;12.60;;;;;;;;;;4997190;28;20208;-79
2023/03/09 12:44:52;;;;;;;21.43;11.97;;;;;;;;;;4996811;28;20194;-80
2023/03/09 12:47:33;;;;;;;23.93;14.20;;;;;;;;;;4993988;28;20371;-79
2023/03/09 12:49:58;;;;;;;21.20;13.77;;;;;;;;;;4994468;28;20183;-81
2023/03/09 12:52:30;;;;;;;24.23;13.67;;;;;;;;;;5002892;28;20216;-80
2023/03/09 12:54:56;;;;;;;25.67;13.57;;;;;;;;;;4993278;28;20179;-80
2023/03/09 12:57:21;;;;;;;26.97;14.53;;;;;;;;;;4994670;28;20245;-79
2023/03/09 12:59:48;;;;;;;26.37;14.57;;;;;;;;;;4994639;28;20633;-79
2023/03/09 13:02:23;;;;;;;23.30;13.17;;;;;;;;;;4995768;28;20211;-80
2023/03/09 13:05:06;;;;;;;23.93;13.40;;;;;;;;;;4995990;28;20710;-80
2023/03/09 13:07:32;;;;;;;22.37;12.83;;;;;;;;;;4995914;28;20186;-80
2023/03/09 13:09:57;;;;;;;24.93;13.50;;;;;;;;;;4995377;28;20188;-80
2023/03/09 13:12:29;;;;;;;26.37;13.70;;;;;;;;;;4995674;28;20203;-79
2023/03/09 13:15:05;;;;;;;19.20;12.93;;;;;;;;;;4995802;28;20184;-80
2023/03/09 13:17:30;;;;;;;26.77;14.10;;;;;;;;;;4996250;28;20601;-80
2023/03/09 13:20:12;;;;;;;26.53;13.60;;;;;;;;;;4995256;28;20184;-80
2023/03/09 13:22:37;;;;;;;20.50;11.63;;;;;;;;;;4997763;28;20293;-80
2023/03/09 13:25:18;;;;;;;24.10;12.03;;;;;;;;;;5002159;28;20636;-80
2023/03/09 13:27:43;;;;;;;24.67;13.50;;;;;;;;;;4994673;28;20190;-80
2023/03/09 13:30:11;;;;;;;18.60;11.43;;;;;;;;;;4994879;28;20199;-79
2023/03/09 13:32:41;;;;;;;21.47;11.93;;;;;;;;;;4995020;28;20203;-80
2023/03/09 13:35:16;;;;;;;20.70;11.97;;;;;;;;;;5010081;28;20182;-79
2023/03/09 13:37:43;;;;;;;22.10;12.27;;;;;;;;;;4994878;28;20179;-81
2023/03/09 13:40:12;;;;;;;22.00;11.33;;;;;;;;;;4994348;28;20183;-80
2023/03/09 13:42:38;;;;;;;20.20;10.87;;;;;;;;;;4992373;28;20641;-79
2023/03/09 13:45:03;;;;;;;23.90;12.87;;;;;;;;;;4992587;28;20178;-80
2023/03/09 13:47:31;;;;;;;23.30;13.17;;;;;;;;;;4993248;28;20176;-80
2023/03/09 13:49:58;;;;;;;21.83;11.80;;;;;;;;;;4996323;28;20202;-81
2023/03/09 13:52:24;;;;;;;24.47;12.77;;;;;;;;;;4992819;28;20211;-80
2023/03/09 13:54:50;;;;;;;23.67;13.27;;;;;;;;;;4989412;28;20308;-80
2023/03/09 13:57:30;;;;;;;24.03;12.27;;;;;;;;;;4990714;28;20187;-80
2023/03/09 13:59:57;;;;;;;20.10;12.00;;;;;;;;;;4993812;28;20186;-80
2023/03/09 14:02:24;;;;;;;20.90;12.00;;;;;;;;;;4987137;28;20673;-80
2023/03/09 14:04:51;;;;;;;21.10;11.73;;;;;;;;;;5002359;28;20175;-80
2023/03/09 14:07:21;;;;;;;22.87;11.70;;;;;;;;;;4991352;28;20167;-80
2023/03/09 14:09:51;;;;;;;17.83;11.03;;;;;;;;;;4996211;28;20180;-80
2023/03/09 14:12:22;;;;;;;20.67;10.60;;;;;;;;;;4994326;28;20199;-80
2023/03/09 14:14:47;;;;;;;24.57;12.70;;;;;;;;;;4995953;28;20229;-81
2023/03/09 14:17:21;;;;;;;21.90;11.87;;;;;;;;;;4994513;28;20187;-80